Time;durP1;ratioP1;P1;durP2;ratioP2;P2;SDS_P1;SDS_P2;PMS_P1;PMS_P2;Temp;Humidity;BMP_temperature;BMP_pressure;BME280_temperature;BME280_humidity;BME280_pressure;Samples;Min_cycle;Max_cycle;Signal;HPM_P1;HPM_P2
2022/09/01 00:00:05;;;;;;;1.52;1.10;;;20.40;46.60;;;;;;4961493;28;20094;-47
2022/09/01 00:02:33;;;;;;;3.35;1.10;;;20.40;46.80;;;;;;4962435;28;20051;-47
2022/09/01 00:05:06;;;;;;;3.58;1.27;;;20.30;46.90;;;;;;4971210;28;20051;-47
2022/09/01 00:07:34;;;;;;;1.27;1.15;;;20.30;47.10;;;;;;4971124;28;20074;-46
2022/09/01 00:10:06;;;;;;;2.92;0.98;;;20.20;47.10;;;;;;4971179;28;20046;-45
2022/09/01 00:12:33;;;;;;;;;;;20.20;47.60;;;;;;4968691;28;20043;-48
2022/09/01 00:15:05;;;;;;;1.63;0.90;;;20.20;46.80;;;;;;4971328;28;19929;-45
2022/09/01 00:17:33;;;;;;;1.25;0.82;;;20.20;47.30;;;;;;4957611;28;20063;-47
2022/09/01 00:20:03;;;;;;;2.10;0.95;;;20.10;47.50;;;;;;4954825;28;20035;-47
2022/09/01 00:22:34;;;;;;;0.93;0.75;;;20.10;47.80;;;;;;4966837;28;20492;-47
2022/09/01 00:25:06;;;;;;;2.27;1.00;;;20.10;47.90;;;;;;4971753;28;20447;-47
2022/09/01 00:27:38;;;;;;;2.65;1.40;;;20.00;48.00;;;;;;4971326;28;20455;-46
2022/09/01 00:30:06;;;;;;;3.00;1.17;;;20.10;48.50;;;;;;4965041;28;20312;-46
2022/09/01 00:32:33;;;;;;;1.73;1.10;;;20.10;48.60;;;;;;4970449;28;20051;-46
2022/09/01 00:35:02;;;;;;;4.30;1.33;;;20.10;48.60;;;;;;4969820;28;20508;-45
2022/09/01 00:37:29;;;;;;;2.10;0.90;;;20.10;48.80;;;;;;4967340;28;20138;-47
2022/09/01 00:39:55;;;;;;;2.50;1.00;;;20.10;48.90;;;;;;4965538;28;20043;-49
2022/09/01 00:42:23;;;;;;;2.00;0.95;;;20.10;49.00;;;;;;4970466;28;20031;-48
2022/09/01 00:44:52;;;;;;;1.40;1.15;;;20.10;49.00;;;;;;4970189;28;20051;-47
2022/09/01 00:47:20;;;;;;;3.55;1.35;;;20.20;49.10;;;;;;4966912;28;20054;-48
2022/09/01 00:49:50;;;;;;;2.00;1.10;;;20.20;49.00;;;;;;4967816;28;20094;-47
2022/09/01 00:52:34;;;;;;;1.73;1.02;;;20.30;49.10;;;;;;4965668;28;20046;-48
2022/09/01 00:55:14;;;;;;;2.20;0.98;;;20.20;49.20;;;;;;4973145;28;20047;-50
2022/09/01 00:57:41;;;;;;;3.42;1.30;;;20.20;49.10;;;;;;4968803;28;20039;-46
2022/09/01 01:00:22;;;;;;;1.10;1.00;;;20.20;48.60;;;;;;4972584;28;20042;-47
2022/09/01 01:02:54;;;;;;;2.67;0.93;;;20.20;49.70;;;;;;4973209;28;20051;-47
2022/09/01 01:05:35;;;;;;;1.50;0.95;;;20.10;48.50;;;;;;4973735;28;20046;-47
2022/09/01 01:08:07;;;;;;;2.22;1.00;;;20.10;49.00;;;;;;4969664;28;20054;-49
2022/09/01 01:10:38;;;;;;;1.58;1.00;;;20.00;48.60;;;;;;4973566;28;20129;-47
2022/09/01 01:13:15;;;;;;;1.10;1.00;;;20.00;48.80;;;;;;4974303;28;20043;-47
2022/09/01 01:15:45;;;;;;;1.73;1.15;;;20.00;49.10;;;;;;4972397;28;20054;-46
2022/09/01 01:18:13;;;;;;;1.17;0.90;;;19.90;48.90;;;;;;4965843;28;20431;-46
2022/09/01 01:23:53;;;;;;;3.08;1.10;;;19.90;49.50;;;;;;4954860;29;20499;-46
2022/09/01 01:26:22;;;;;;;1.40;1.30;;;19.80;49.50;;;;;;4960732;28;20054;-49
2022/09/01 01:28:50;;;;;;;1.35;1.10;;;19.80;49.20;;;;;;4972727;28;20101;-46
2022/09/01 01:31:24;;;;;;;1.85;1.30;;;19.70;49.30;;;;;;4953060;28;20055;-46
2022/09/01 01:33:58;;;;;;;1.17;0.77;;;19.70;49.30;;;;;;4956919;28;20051;-45
2022/09/01 01:36:35;;;;;;;1.88;1.00;;;19.70;49.70;;;;;;4965786;28;20832;-49
2022/09/01 01:39:09;;;;;;;1.70;1.15;;;19.60;49.80;;;;;;4972576;28;20043;-47
2022/09/01 01:41:44;;;;;;;1.13;1.02;;;19.60;49.70;;;;;;4973276;28;20527;-46
2022/09/01 01:44:15;;;;;;;1.02;0.80;;;19.50;49.40;;;;;;4969273;28;20047;-48
2022/09/01 01:46:48;;;;;;;1.70;0.88;;;19.40;49.50;;;;;;4971916;28;20051;-47
2022/09/01 01:49:21;;;;;;;3.65;1.48;;;19.40;49.70;;;;;;4971786;28;20404;-45
2022/09/01 01:51:54;;;;;;;1.85;1.20;;;19.30;49.80;;;;;;4972220;28;20583;-47
2022/09/01 01:54:31;;;;;;;2.05;0.93;;;19.30;50.00;;;;;;4963010;28;20043;-47
2022/09/01 01:57:03;;;;;;;1.08;1.00;;;19.20;50.00;;;;;;4967788;28;20043;-47
2022/09/01 01:59:32;;;;;;;1.95;1.23;;;19.10;50.10;;;;;;4964511;28;20126;-48
2022/09/01 02:02:02;;;;;;;4.45;1.20;;;19.00;50.20;;;;;;4962531;28;20039;-47
2022/09/01 02:04:33;;;;;;;1.58;1.20;;;19.00;50.40;;;;;;4968115;28;20055;-45
2022/09/01 02:07:06;;;;;;;1.48;1.20;;;18.90;50.50;;;;;;4971480;28;20042;-46
2022/09/01 02:09:33;;;;;;;2.13;1.00;;;18.90;50.70;;;;;;4971278;28;20046;-49
2022/09/01 02:11:59;;;;;;;2.30;1.15;;;18.80;50.80;;;;;;4971922;28;20043;-47
2022/09/01 02:14:30;;;;;;;2.35;1.40;;;18.70;50.80;;;;;;4967626;28;20043;-49
2022/09/01 02:17:01;;;;;;;1.45;1.35;;;18.70;50.90;;;;;;4963276;28;20400;-45
2022/09/01 02:19:30;;;;;;;2.53;1.50;;;18.60;50.80;;;;;;4958692;28;20485;-45
2022/09/01 02:21:59;;;;;;;2.08;1.25;;;18.60;50.90;;;;;;4974923;23;20049;-44
2022/09/01 02:24:30;;;;;;;2.65;1.42;;;18.50;50.90;;;;;;4960875;28;20055;-47
2022/09/01 02:26:59;;;;;;;2.97;1.30;;;18.50;51.00;;;;;;4964928;28;20052;-46
2022/09/01 02:29:29;;;;;;;2.13;1.20;;;18.40;51.10;;;;;;4965148;28;20052;-46
2022/09/01 02:32:05;;;;;;;2.95;1.67;;;18.30;51.10;;;;;;4942580;28;20154;-46
2022/09/01 02:34:33;;;;;;;3.13;1.40;;;18.30;51.30;;;;;;4960715;28;20043;-46
2022/09/01 02:37:04;;;;;;;1.58;1.10;;;18.20;51.40;;;;;;4942738;29;20039;-47
2022/09/01 02:39:34;;;;;;;1.63;1.50;;;18.20;51.60;;;;;;4944252;29;20527;-47
2022/09/01 02:42:01;;;;;;;3.92;1.20;;;18.10;51.70;;;;;;4946376;28;20500;-45
2022/09/01 02:44:31;;;;;;;1.92;1.45;;;18.10;51.90;;;;;;4946389;29;20055;-46
2022/09/01 02:47:04;;;;;;;3.88;1.77;;;18.00;51.90;;;;;;4941977;29;20394;-46
2022/09/01 02:49:34;;;;;;;1.73;1.30;;;18.00;51.80;;;;;;4941649;29;20609;-45
2022/09/01 02:52:03;;;;;;;4.28;1.60;;;17.90;51.80;;;;;;4946661;29;20467;-46
2022/09/01 02:54:31;;;;;;;2.28;1.10;;;17.90;51.90;;;;;;4944564;28;20043;-45
2022/09/01 02:56:58;;;;;;;1.90;1.23;;;17.90;52.10;;;;;;4944494;29;20047;-44
2022/09/01 02:59:29;;;;;;;2.40;1.52;;;17.80;52.10;;;;;;4944305;29;20043;-46
2022/09/01 03:01:59;;;;;;;4.85;1.50;;;17.80;52.20;;;;;;4946979;28;20480;-46
2022/09/01 03:04:32;;;;;;;2.90;1.70;;;17.70;52.20;;;;;;4951908;29;20043;-45
2022/09/01 03:07:06;;;;;;;2.10;1.42;;;17.70;52.50;;;;;;4951337;29;20054;-44
2022/09/01 03:09:34;;;;;;;3.55;1.70;;;17.60;52.50;;;;;;4944906;29;20495;-47
2022/09/01 03:12:09;;;;;;;4.72;1.80;;;17.60;52.40;;;;;;4951292;28;20047;-45
2022/09/01 03:14:37;;;;;;;1.73;1.20;;;17.50;53.00;;;;;;4937864;29;20051;-46
2022/09/01 03:17:04;;;;;;;2.75;1.60;;;17.50;52.70;;;;;;4937296;29;20489;-45
2022/09/01 03:19:39;;;;;;;1.50;1.40;;;17.50;52.80;;;;;;4951369;29;20095;-45
2022/09/01 03:22:10;;;;;;;2.63;1.23;;;17.40;52.90;;;;;;4950793;28;20101;-46
2022/09/01 03:24:38;;;;;;;2.92;1.08;;;17.30;52.90;;;;;;4951729;29;20452;-46
2022/09/01 03:27:05;;;;;;;2.72;1.30;;;17.30;52.90;;;;;;4948630;29;20574;-45
2022/09/01 03:29:32;;;;;;;2.28;1.60;;;17.30;53.00;;;;;;4947659;29;20039;-45
2022/09/01 03:31:59;;;;;;;1.45;1.20;;;17.30;53.00;;;;;;4951391;28;20047;-46
2022/09/01 03:34:27;;;;;;;2.50;1.63;;;17.20;52.90;;;;;;4951441;29;20071;-45
2022/09/01 03:36:56;;;;;;;2.05;1.50;;;17.20;53.00;;;;;;4945112;29;20578;-45
2022/09/01 03:39:26;;;;;;;2.58;1.38;;;17.10;53.10;;;;;;4950973;29;20051;-44
2022/09/01 03:41:55;;;;;;;2.90;1.58;;;17.10;53.20;;;;;;4951051;28;20463;-45
2022/09/01 03:44:22;;;;;;;4.20;1.83;;;17.10;53.40;;;;;;4948931;29;20130;-46
2022/09/01 03:46:51;;;;;;;1.90;1.33;;;17.00;53.50;;;;;;4944993;29;20488;-45
2022/09/01 03:49:26;;;;;;;2.17;1.80;;;17.00;53.60;;;;;;4950678;29;20044;-44
2022/09/01 03:51:57;;;;;;;1.60;1.17;;;16.90;53.60;;;;;;4950701;28;20048;-46
2022/09/01 03:54:29;;;;;;;1.75;1.40;;;16.90;53.50;;;;;;4943047;29;20047;-47
2022/09/01 03:56:58;;;;;;;2.53;1.10;;;16.90;53.70;;;;;;4949149;29;20043;-46
2022/09/01 03:59:28;;;;;;;2.67;1.27;;;16.90;53.70;;;;;;4946517;28;20043;-46
2022/09/01 04:01:56;;;;;;;2.05;1.50;;;16.80;53.80;;;;;;4925967;28;20069;-47
2022/09/01 04:04:23;;;;;;;1.65;1.40;;;16.80;54.00;;;;;;4941164;29;20051;-46
2022/09/01 04:06:50;;;;;;;2.05;1.40;;;16.80;54.10;;;;;;4949740;29;20154;-44
2022/09/01 04:09:17;;;;;;;2.40;1.60;;;16.70;54.20;;;;;;4950700;29;20518;-46
2022/09/01 04:11:47;;;;;;;5.10;1.75;;;16.70;54.20;;;;;;4950306;28;20044;-46
2022/09/01 04:14:19;;;;;;;1.85;1.40;;;16.70;54.20;;;;;;4948852;29;20086;-45
2022/09/01 04:19:41;;;;;;;2.75;1.65;;;16.70;54.20;;;;;;4961774;28;20067;-46
2022/09/01 04:22:13;;;;;;;1.75;1.40;;;16.60;54.10;;;;;;4950388;29;20051;-46
2022/09/01 04:24:47;;;;;;;1.70;1.42;;;16.60;54.60;;;;;;4930979;29;20074;-48
2022/09/01 04:27:17;;;;;;;1.40;1.05;;;16.60;54.60;;;;;;4951441;29;20047;-47
2022/09/01 04:29:47;;;;;;;7.00;1.45;;;16.60;54.40;;;;;;4949826;29;20047;-44
2022/09/01 04:32:14;;;;;;;2.75;1.70;;;16.50;54.60;;;;;;4952142;28;20089;-45
2022/09/01 04:34:44;;;;;;;3.13;1.60;;;16.50;54.50;;;;;;4963705;28;20054;-45
2022/09/01 04:37:19;;;;;;;3.30;1.58;;;16.50;54.60;;;;;;4953692;29;20402;-46
2022/09/01 04:39:53;;;;;;;2.58;1.65;;;16.50;54.90;;;;;;4954679;29;20075;-46
2022/09/01 04:42:25;;;;;;;2.50;1.40;;;16.40;55.00;;;;;;4943786;28;20115;-47
2022/09/01 04:44:53;;;;;;;3.45;1.80;;;16.50;55.00;;;;;;4952296;29;20070;-47
2022/09/01 04:47:28;;;;;;;2.35;1.80;;;16.40;55.00;;;;;;4946014;29;20051;-45
2022/09/01 04:50:03;;;;;;;2.35;1.60;;;16.40;55.00;;;;;;4943001;29;20095;-45
2022/09/01 04:52:32;;;;;;;2.40;1.30;;;16.40;55.00;;;;;;4953936;28;20043;-49
2022/09/01 04:55:02;;;;;;;2.50;1.80;;;16.40;55.40;;;;;;4954030;29;20043;-46
2022/09/01 04:57:30;;;;;;;2.28;1.60;;;16.30;55.30;;;;;;4936259;29;20051;-46
2022/09/01 04:59:57;;;;;;;2.25;1.80;;;16.30;55.40;;;;;;4953780;29;20078;-45
2022/09/01 05:02:25;;;;;;;1.48;1.38;;;16.30;55.50;;;;;;4944047;29;20040;-44
2022/09/01 05:04:53;;;;;;;3.10;1.80;;;16.30;55.50;;;;;;4950725;29;20062;-44
2022/09/01 05:07:22;;;;;;;3.40;1.50;;;16.30;55.60;;;;;;4947291;29;20040;-47
2022/09/01 05:09:53;;;;;;;2.58;1.70;;;16.20;55.60;;;;;;4949052;29;20063;-46
2022/09/01 05:12:48;;;;;;;2.15;1.80;;;16.30;55.90;;;;;;4948661;28;20047;-46
2022/09/01 05:15:16;;;;;;;2.15;1.55;;;16.20;55.60;;;;;;4952164;29;20500;-45
2022/09/01 05:17:42;;;;;;;3.80;1.50;;;16.30;55.80;;;;;;4964075;28;20097;-50
2022/09/01 05:20:10;;;;;;;2.03;1.25;;;16.20;55.90;;;;;;4948249;29;20428;-52
2022/09/01 05:22:39;;;;;;;1.80;1.27;;;16.20;56.10;;;;;;4953817;28;20043;-47
2022/09/01 05:25:17;;;;;;;3.00;1.90;;;16.20;56.30;;;;;;4951664;29;20048;-52
2022/09/01 05:27:51;;;;;;;2.55;1.88;;;16.20;56.40;;;;;;4951708;29;20058;-48
2022/09/01 05:30:21;;;;;;;1.85;1.63;;;16.20;56.50;;;;;;4946120;29;20071;-50
2022/09/01 05:32:47;;;;;;;1.75;1.60;;;16.20;56.60;;;;;;4951480;28;20051;-49
2022/09/01 05:35:16;;;;;;;2.67;1.60;;;16.30;56.80;;;;;;4948940;28;20055;-50
2022/09/01 05:37:44;;;;;;;2.17;1.67;;;16.30;57.00;;;;;;4950402;29;20047;-48
2022/09/01 05:40:14;;;;;;;5.60;2.20;;;16.30;57.30;;;;;;4947928;29;20099;-48
2022/09/01 05:42:44;;;;;;;2.17;1.85;;;16.30;57.40;;;;;;4950535;28;20099;-48
2022/09/01 05:45:13;;;;;;;2.40;2.17;;;16.40;57.60;;;;;;4950350;29;20071;-49
2022/09/01 05:47:40;;;;;;;1.98;1.73;;;16.40;57.80;;;;;;4951100;29;20149;-49
2022/09/01 05:50:09;;;;;;;1.85;1.58;;;16.50;58.00;;;;;;4950119;29;20046;-49
2022/09/01 05:52:43;;;;;;;2.28;1.83;;;16.50;58.00;;;;;;4945986;28;20517;-50
2022/09/01 05:55:10;;;;;;;3.60;2.03;;;16.60;58.10;;;;;;4942821;29;20464;-48
2022/09/01 05:57:40;;;;;;;3.17;2.15;;;16.60;58.30;;;;;;4947047;29;20058;-50
2022/09/01 06:00:12;;;;;;;1.92;1.55;;;16.60;58.50;;;;;;4946127;29;20048;-50
2022/09/01 06:02:41;;;;;;;3.58;1.70;;;16.70;58.90;;;;;;4951252;28;20063;-50
2022/09/01 06:05:12;;;;;;;2.25;1.90;;;16.70;58.90;;;;;;4948549;29;20102;-49
2022/09/01 06:07:41;;;;;;;2.00;1.80;;;16.80;59.10;;;;;;4947009;29;20731;-50
2022/09/01 06:10:09;;;;;;;3.50;2.00;;;16.90;59.20;;;;;;4950505;28;20047;-49
2022/09/01 06:12:37;;;;;;;2.80;2.10;;;17.00;59.40;;;;;;4958687;28;20058;-50
2022/09/01 06:15:14;;;;;;;3.53;1.92;;;17.00;59.60;;;;;;4948598;29;20471;-52
2022/09/01 06:17:45;;;;;;;2.38;1.48;;;17.10;59.80;;;;;;4939666;29;20783;-51
2022/09/01 06:20:13;;;;;;;4.82;2.00;;;17.20;59.90;;;;;;4949783;29;20138;-48
2022/09/01 06:22:43;;;;;;;2.75;2.35;;;17.30;59.80;;;;;;4950332;28;20043;-51
2022/09/01 06:25:10;;;;;;;3.33;1.90;;;17.30;59.90;;;;;;4949221;29;20057;-50
2022/09/01 06:27:43;;;;;;;2.75;2.28;;;17.40;60.00;;;;;;4949851;29;20044;-50
2022/09/01 06:30:15;;;;;;;2.33;2.13;;;17.50;59.60;;;;;;4950196;29;20150;-47
2022/09/01 06:32:53;;;;;;;3.45;2.25;;;17.60;59.60;;;;;;4947306;28;20055;-50
2022/09/01 06:35:21;;;;;;;3.20;2.08;;;17.70;59.20;;;;;;4945704;28;20550;-50
2022/09/01 06:37:48;;;;;;;2.80;2.20;;;17.80;59.20;;;;;;4948201;29;20051;-51
2022/09/01 06:40:34;;;;;;;2.28;1.95;;;17.90;59.00;;;;;;4950170;29;20055;-48
2022/09/01 06:43:06;;;;;;;2.28;2.08;;;18.00;58.70;;;;;;4949609;28;20047;-50
2022/09/01 06:45:43;;;;;;;3.42;2.17;;;18.10;58.40;;;;;;4945071;29;20047;-48
2022/09/01 06:48:14;;;;;;;2.60;1.77;;;18.20;58.70;;;;;;4951798;28;20040;-51
2022/09/01 06:50:42;;;;;;;3.85;1.98;;;18.30;58.40;;;;;;4944175;29;20047;-50
2022/09/01 06:53:30;;;;;;;2.60;2.25;;;18.40;58.20;;;;;;4942909;29;20051;-50
2022/09/01 06:55:59;;;;;;;4.22;2.28;;;18.50;58.00;;;;;;4959747;28;20071;-50
2022/09/01 06:58:28;;;;;;;2.30;2.10;;;18.50;57.60;;;;;;4953002;28;20070;-50
2022/09/01 07:00:55;;;;;;;1.80;1.70;;;18.60;57.50;;;;;;4950932;29;20054;-50
2022/09/01 07:03:23;;;;;;;2.25;1.77;;;18.70;57.50;;;;;;4949007;29;20054;-49
2022/09/01 07:06:14;;;;;;;2.55;1.90;;;18.80;57.40;;;;;;4951504;29;20122;-50
2022/09/01 07:09:16;;;;;;;3.30;2.00;;;18.90;57.30;;;;;;4952496;29;20090;-52
2022/09/01 07:12:40;;;;;;;4.07;2.08;;;18.90;57.00;;;;;;4923749;29;20128;-50
2022/09/01 07:15:29;;;;;;;1.48;1.38;;;19.10;56.70;;;;;;4962287;28;20059;-47
2022/09/01 07:18:23;;;;;;;6.03;2.45;;;19.10;56.50;;;;;;4951387;29;20420;-54
2022/09/01 07:20:51;;;;;;;4.90;2.00;;;19.20;56.30;;;;;;4963922;28;20507;-53
2022/09/01 07:23:42;;;;;;;2.35;1.90;;;19.30;56.20;;;;;;4958532;28;20051;-50
2022/09/01 07:26:32;;;;;;;4.78;1.52;;;19.40;56.00;;;;;;4951221;29;20047;-49
2022/09/01 07:29:02;;;;;;;4.47;1.73;;;19.50;55.70;;;;;;4951490;29;20051;-50
2022/09/01 07:31:35;;;;;;;1.98;1.52;;;19.50;55.60;;;;;;4945049;29;20051;-50
2022/09/01 07:34:25;;;;;;;3.25;1.70;;;19.60;55.30;;;;;;4950698;29;20051;-49
2022/09/01 07:37:12;;;;;;;2.10;1.38;;;19.70;55.10;;;;;;4943097;29;20047;-48
2022/09/01 07:39:59;;;;;;;1.88;1.25;;;19.70;55.10;;;;;;4946632;29;20512;-50
2022/09/01 07:43:27;;;;;;;1.42;1.13;;;19.80;55.00;;;;;;4935722;28;20055;-49
2022/09/01 07:46:31;;;;;;;2.13;1.20;;;19.90;54.40;;;;;;4946728;29;20424;-49
2022/09/01 07:49:10;;;;;;;1.23;1.13;;;20.00;54.30;;;;;;4961217;28;20556;-49
2022/09/01 07:51:57;;;;;;;2.38;1.17;;;20.10;54.40;;;;;;4949442;28;20051;-53
2022/09/01 07:54:26;;;;;;;2.42;1.20;;;20.10;54.20;;;;;;4951094;29;20047;-52
2022/09/01 07:56:54;;;;;;;1.75;1.23;;;20.20;54.10;;;;;;4950869;29;20062;-49
2022/09/01 07:59:21;;;;;;;2.08;1.30;;;20.30;53.90;;;;;;4963189;28;20059;-47
2022/09/01 08:01:53;;;;;;;1.48;1.27;;;20.40;53.90;;;;;;4951886;28;20729;-49
2022/09/01 08:04:23;;;;;;;2.08;1.38;;;20.40;53.50;;;;;;4950277;28;20550;-50
2022/09/01 08:06:50;;;;;;;1.52;1.20;;;20.50;53.40;;;;;;4954493;29;20051;-50
2022/09/01 08:09:17;;;;;;;2.10;1.38;;;20.60;53.20;;;;;;4940694;29;20082;-50
2022/09/01 08:12:01;;;;;;;1.17;1.17;;;20.60;53.00;;;;;;4966681;28;20058;-50
2022/09/01 08:14:32;;;;;;;1.55;1.50;;;20.70;53.10;;;;;;4947435;29;20043;-50
2022/09/01 08:17:00;;;;;;;2.58;1.20;;;20.80;53.00;;;;;;4952387;29;20052;-54
2022/09/01 08:19:45;;;;;;;2.05;1.05;;;20.90;53.00;;;;;;4954795;29;20504;-50
2022/09/01 08:22:22;;;;;;;1.38;1.27;;;20.90;52.70;;;;;;4953048;28;20114;-51
2022/09/01 08:25:00;;;;;;;2.30;1.05;;;21.00;52.70;;;;;;4953987;29;20043;-49
2022/09/01 08:27:28;;;;;;;2.15;1.35;;;21.10;52.50;;;;;;4952328;29;20102;-54
2022/09/01 08:29:55;;;;;;;1.58;1.27;;;21.20;52.60;;;;;;4952526;29;20086;-51
2022/09/01 08:32:22;;;;;;;2.65;1.23;;;21.20;52.40;;;;;;4953958;28;20039;-52
2022/09/01 08:34:50;;;;;;;2.55;1.23;;;21.20;52.20;;;;;;4954338;29;20063;-49
2022/09/01 08:37:19;;;;;;;1.85;1.27;;;21.30;52.20;;;;;;4948159;29;20500;-49
2022/09/01 08:39:48;;;;;;;2.97;1.15;;;21.40;51.90;;;;;;4954033;29;20051;-51
2022/09/01 08:42:50;;;;;;;1.30;1.20;;;21.50;52.00;;;;;;4953335;28;20062;-52
2022/09/01 08:45:30;;;;;;;1.52;1.25;;;21.60;51.80;;;;;;4877946;29;20086;-51
2022/09/01 08:48:01;;;;;;;1.27;1.17;;;21.60;51.30;;;;;;4942902;29;20138;-50
2022/09/01 08:50:58;;;;;;;3.05;1.88;;;21.70;51.40;;;;;;4945829;29;20062;-51
2022/09/01 08:53:50;;;;;;;1.33;1.23;;;21.80;50.90;;;;;;4945654;28;20059;-51
2022/09/01 08:56:18;;;;;;;3.05;1.30;;;21.80;50.90;;;;;;4963801;28;20094;-49
2022/09/01 08:58:45;;;;;;;1.42;1.10;;;21.90;51.00;;;;;;4947972;29;20479;-50
2022/09/01 09:01:48;;;;;;;1.33;1.13;;;21.90;51.10;;;;;;4946157;29;20039;-53
2022/09/01 09:04:47;;;;;;;3.05;1.40;;;22.00;50.10;;;;;;4950208;29;20123;-50
2022/09/01 09:07:32;;;;;;;1.42;1.30;;;22.10;49.90;;;;;;4950529;29;20122;-49
2022/09/01 09:10:22;;;;;;;2.65;1.08;;;22.10;49.80;;;;;;4950283;29;20047;-50
2022/09/01 09:12:55;;;;;;;1.15;1.00;;;22.20;49.80;;;;;;4945664;28;20492;-50
2022/09/01 09:15:50;;;;;;;1.17;1.08;;;22.30;49.00;;;;;;4948950;29;20070;-48
2022/09/01 09:18:54;;;;;;;3.63;1.05;;;22.30;48.30;;;;;;4954258;29;20036;-50
2022/09/01 09:21:40;;;;;;;1.25;1.10;;;22.40;48.10;;;;;;4947289;29;20073;-50
2022/09/01 09:24:25;;;;;;;2.50;1.10;;;22.50;47.50;;;;;;4952414;28;20243;-51
2022/09/01 09:27:05;;;;;;;2.63;1.33;;;22.50;46.60;;;;;;4951674;29;20079;-53
2022/09/01 09:29:35;;;;;;;0.90;0.90;;;22.60;46.90;;;;;;4945495;29;20057;-49
2022/09/01 09:32:07;;;;;;;1.00;0.77;;;22.70;47.00;;;;;;4953900;28;20110;-53
2022/09/01 09:34:49;;;;;;;3.95;1.10;;;22.80;46.90;;;;;;4948758;28;20047;-54
2022/09/01 09:37:19;;;;;;;1.23;1.00;;;22.90;46.40;;;;;;4953813;29;20723;-53
2022/09/01 09:40:09;;;;;;;2.50;0.90;;;22.90;45.70;;;;;;4954245;28;20035;-52
2022/09/01 09:42:57;;;;;;;2.00;1.17;;;23.00;45.40;;;;;;4948504;28;20035;-52
2022/09/01 09:45:34;;;;;;;2.92;0.77;;;23.00;44.50;;;;;;4952151;29;20035;-49
2022/09/01 09:48:28;;;;;;;1.85;0.82;;;23.10;44.40;;;;;;4954140;28;20039;-53
2022/09/01 09:50:55;;;;;;;1.38;0.80;;;23.20;44.50;;;;;;4954310;28;20047;-53
2022/09/01 09:53:27;;;;;;;3.53;0.93;;;23.20;44.50;;;;;;4948768;28;20043;-53
2022/09/01 09:56:03;;;;;;;6.78;1.13;;;23.30;44.00;;;;;;4953772;28;20051;-53
2022/09/01 09:58:41;;;;;;;1.35;0.60;;;23.40;44.00;;;;;;4946933;29;20055;-50
2022/09/01 10:01:16;;;;;;;3.20;0.95;;;23.50;43.20;;;;;;4946337;29;20047;-50
2022/09/01 10:03:57;;;;;;;0.65;0.65;;;23.50;43.20;;;;;;4950891;28;20118;-54
2022/09/01 10:06:45;;;;;;;0.88;0.73;;;23.60;42.40;;;;;;4944649;29;20055;-53
2022/09/01 10:09:21;;;;;;;0.47;0.47;;;23.60;42.30;;;;;;4950310;28;20466;-49
2022/09/01 10:11:51;;;;;;;2.05;0.80;;;23.70;42.20;;;;;;4948436;28;20047;-53
2022/09/01 10:14:26;;;;;;;1.52;0.65;;;23.70;42.00;;;;;;4951935;28;20067;-51
2022/09/01 10:17:20;;;;;;;3.45;0.77;;;23.70;41.30;;;;;;4945711;28;20039;-52
2022/09/01 10:20:04;;;;;;;3.38;0.57;;;23.70;41.70;;;;;;4946549;29;20054;-52
2022/09/01 10:22:32;;;;;;;4.85;0.50;;;23.80;41.20;;;;;;4945582;28;20051;-51
2022/09/01 10:25:00;;;;;;;1.40;0.80;;;23.80;41.00;;;;;;4951479;28;20368;-49
2022/09/01 10:27:36;;;;;;;1.02;0.50;;;23.80;40.80;;;;;;4950359;28;20495;-50
2022/09/01 10:30:10;;;;;;;1.83;0.77;;;23.90;40.20;;;;;;4949341;29;20039;-51
2022/09/01 10:32:43;;;;;;;0.80;0.65;;;23.90;40.70;;;;;;4946178;28;20102;-50
2022/09/01 10:35:33;;;;;;;1.60;0.70;;;24.00;40.50;;;;;;4951424;28;20479;-50
2022/09/01 10:38:05;;;;;;;1.83;0.70;;;24.00;40.10;;;;;;4942182;28;20098;-50
2022/09/01 10:40:39;;;;;;;0.65;0.65;;;24.00;39.80;;;;;;4944181;29;20036;-49
2022/09/01 10:43:34;;;;;;;1.27;0.95;;;24.10;39.20;;;;;;4941371;28;20381;-52
2022/09/01 10:46:18;;;;;;;3.70;0.80;;;24.20;39.70;;;;;;4939741;29;20817;-50
2022/09/01 10:48:54;;;;;;;2.22;1.00;;;24.20;39.70;;;;;;4944233;29;20043;-51
2022/09/01 10:51:27;;;;;;;2.03;0.60;;;24.30;39.50;;;;;;4945327;28;20040;-50
2022/09/01 10:54:05;;;;;;;0.40;0.40;;;24.30;39.60;;;;;;4942697;29;20063;-48
2022/09/01 10:56:46;;;;;;;1.73;0.70;;;24.30;39.10;;;;;;4943163;29;20062;-50
2022/09/01 10:59:27;;;;;;;1.92;0.70;;;24.40;39.00;;;;;;4946426;29;20042;-54
2022/09/01 11:02:13;;;;;;;1.50;0.80;;;24.50;39.10;;;;;;4945060;29;20035;-52
2022/09/01 11:05:00;;;;;;;1.95;0.88;;;24.50;38.40;;;;;;4941840;29;20048;-53
2022/09/01 11:07:33;;;;;;;0.80;0.65;;;24.50;38.80;;;;;;4946685;29;20059;-54
2022/09/01 11:10:48;;;;;;;1.67;0.60;;;24.60;38.30;;;;;;4946605;28;20133;-49
2022/09/01 11:13:48;;;;;;;1.77;0.60;;;24.70;38.40;;;;;;4939562;29;20497;-52
2022/09/01 11:16:40;;;;;;;2.17;0.73;;;24.70;38.20;;;;;;4943118;29;20090;-50
2022/09/01 11:19:25;;;;;;;1.67;0.80;;;24.80;38.00;;;;;;4951355;29;20062;-51
2022/09/01 11:22:23;;;;;;;0.77;0.77;;;24.80;37.80;;;;;;4950368;28;20047;-51
2022/09/01 11:25:24;;;;;;;1.13;0.75;;;24.90;38.20;;;;;;4944381;29;20062;-52
2022/09/01 11:27:51;;;;;;;3.22;0.80;;;24.90;37.60;;;;;;4947269;29;20054;-51
2022/09/01 11:30:51;;;;;;;1.55;1.15;;;25.00;37.90;;;;;;4939825;29;20556;-49
2022/09/01 11:33:46;;;;;;;1.00;0.90;;;25.00;37.40;;;;;;4941841;29;20091;-51
2022/09/01 11:36:34;;;;;;;0.50;0.50;;;25.10;37.10;;;;;;4946534;29;20055;-51
2022/09/01 11:39:06;;;;;;;1.00;0.73;;;25.20;37.20;;;;;;4949036;29;20039;-52
2022/09/01 11:41:39;;;;;;;1.20;0.75;;;25.20;37.00;;;;;;4950670;28;20043;-49
2022/09/01 11:44:33;;;;;;;2.33;0.52;;;25.30;36.70;;;;;;4952019;28;20074;-54
2022/09/01 11:47:11;;;;;;;4.18;0.70;;;25.30;36.60;;;;;;4947138;29;20048;-51
2022/09/01 11:50:05;;;;;;;1.13;0.70;;;25.40;36.20;;;;;;4951298;28;20051;-52
2022/09/01 11:52:37;;;;;;;0.82;0.60;;;25.50;36.10;;;;;;4943824;28;20681;-51
2022/09/01 11:55:06;;;;;;;1.55;0.90;;;25.50;36.10;;;;;;4946616;28;20070;-51
2022/09/01 11:57:38;;;;;;;0.63;0.60;;;25.60;36.30;;;;;;4945227;28;20075;-50
2022/09/01 12:00:11;;;;;;;1.25;0.60;;;25.70;35.80;;;;;;4943239;29;20471;-54
2022/09/01 12:02:45;;;;;;;0.55;0.55;;;25.70;35.20;;;;;;4942835;28;20464;-54
2022/09/01 12:05:37;;;;;;;0.57;0.57;;;25.80;35.80;;;;;;4946117;29;20039;-48
2022/09/01 12:08:16;;;;;;;1.17;0.55;;;25.90;35.60;;;;;;4942145;29;20057;-51
2022/09/01 12:10:45;;;;;;;1.10;0.95;;;26.00;35.40;;;;;;4943452;28;20396;-49
2022/09/01 12:13:23;;;;;;;0.70;0.60;;;26.00;35.00;;;;;;4939148;28;20511;-53
2022/09/01 12:15:58;;;;;;;2.28;0.75;;;26.10;35.00;;;;;;4946776;29;20078;-51
2022/09/01 12:18:47;;;;;;;1.20;0.70;;;26.20;34.40;;;;;;4947797;29;20504;-50
2022/09/01 12:21:32;;;;;;;0.77;0.70;;;26.20;34.70;;;;;;4949553;28;20081;-50
2022/09/01 12:24:15;;;;;;;;;;;26.30;34.40;;;;;;4947637;28;20571;-53
2022/09/01 12:26:47;;;;;;;0.68;0.50;;;26.40;35.90;;;;;;4945250;28;20388;-52
2022/09/01 12:29:15;;;;;;;0.98;0.88;;;26.50;35.10;;;;;;4950070;29;20102;-53
2022/09/01 12:31:47;;;;;;;0.93;0.80;;;26.50;34.30;;;;;;4944342;28;20047;-54
2022/09/01 12:34:25;;;;;;;;;;;26.60;34.10;;;;;;4951140;28;20047;-49
2022/09/01 12:37:02;;;;;;;0.70;0.68;;;26.70;35.30;;;;;;4949590;29;19929;-50
2022/09/01 12:39:37;;;;;;;0.60;0.60;;;26.80;33.90;;;;;;4947615;29;20571;-54
2022/09/01 12:42:11;;;;;;;3.60;0.88;;;26.80;32.90;;;;;;4943999;29;20039;-53
2022/09/01 12:44:38;;;;;;;1.55;0.50;;;26.90;33.70;;;;;;4943377;28;20043;-50
2022/09/01 12:47:12;;;;;;;0.70;0.60;;;27.00;33.60;;;;;;4944948;29;20500;-52
2022/09/01 12:49:40;;;;;;;1.20;0.70;;;27.00;32.40;;;;;;4946580;29;20160;-50
2022/09/01 12:52:24;;;;;;;0.60;0.60;;;27.10;33.40;;;;;;4948466;29;20466;-52
2022/09/01 12:55:13;;;;;;;2.05;0.70;;;27.10;33.20;;;;;;4945603;29;20098;-52
2022/09/01 12:58:04;;;;;;;1.45;0.80;;;27.20;32.80;;;;;;4948541;29;20122;-52
2022/09/01 13:00:34;;;;;;;3.55;0.90;;;27.30;33.20;;;;;;4947212;29;20063;-49
2022/09/01 13:03:16;;;;;;;1.58;0.63;;;27.40;33.10;;;;;;4947235;28;20111;-54
2022/09/01 13:05:51;;;;;;;0.75;0.73;;;27.50;32.70;;;;;;4950303;28;20099;-51
2022/09/01 13:08:20;;;;;;;5.05;0.80;;;27.70;32.80;;;;;;4947968;29;20066;-51
2022/09/01 13:10:52;;;;;;;1.27;0.60;;;27.80;32.80;;;;;;4949304;28;20532;-51
2022/09/01 13:13:21;;;;;;;1.77;1.20;;;27.90;32.50;;;;;;4949107;28;20043;-53
2022/09/01 13:15:54;;;;;;;1.52;0.70;;;28.10;32.60;;;;;;4939199;29;20039;-53
2022/09/01 13:18:24;;;;;;;1.02;0.80;;;28.30;31.90;;;;;;4933553;29;20460;-53
2022/09/01 13:20:52;;;;;;;1.42;0.75;;;28.40;31.80;;;;;;4945145;29;20526;-53
2022/09/01 13:23:20;;;;;;;3.08;0.52;;;28.60;32.10;;;;;;4946746;28;20110;-53
2022/09/01 13:25:47;;;;;;;2.15;0.85;;;28.70;32.20;;;;;;4951339;28;20126;-50
2022/09/01 13:28:16;;;;;;;3.05;0.75;;;28.90;31.80;;;;;;4942427;29;21331;-53
2022/09/01 13:30:46;;;;;;;0.60;0.60;;;29.10;31.20;;;;;;4948147;28;20043;-53
2022/09/01 13:33:12;;;;;;;0.60;0.60;;;29.40;31.40;;;;;;4951033;28;20047;-53